Time;durP1;ratioP1;P1;durP2;ratioP2;P2;SDS_P1;SDS_P2;PMS_P1;PMS_P2;Temp;Humidity;BMP_temperature;BMP_pressure;BME280_temperature;BME280_humidity;BME280_pressure;Samples;Min_cycle;Max_cycle;Signal;HPM_P1;HPM_P2
2023/06/23 01:21:44;;;;;;;;;11.50;7.00;;;;;19.15;58.01;101993.13;1359077;23;46364;-89
2023/06/23 01:24:19;;;;;;;;;8.00;8.00;;;;;19.15;58.55;101994.91;4859844;29;48621;-90
2023/06/23 01:27:02;;;;;;;;;11.00;9.00;;;;;19.13;58.08;101999.41;4861154;29;45834;-92
2023/06/23 01:29:31;;;;;;;;;7.25;7.00;;;;;19.11;58.25;101993.38;4862062;29;45498;-91
2023/06/23 01:32:06;;;;;;;;;10.00;9.67;;;;;19.09;58.34;101996.97;4862139;29;45519;-91
2023/06/23 01:34:38;;;;;;;;;10.33;9.00;;;;;18.98;58.04;101983.41;4861753;29;45913;-92
2023/06/23 01:37:10;;;;;;;;;9.00;8.33;;;;;19.06;58.42;101996.25;4861885;29;45464;-91
2023/06/23 01:39:40;;;;;;;;;6.00;6.00;;;;;19.00;58.46;101992.13;4861895;29;45396;-91
2023/06/23 01:42:10;;;;;;;;;10.00;8.67;;;;;18.99;58.65;101998.34;4845535;29;45566;-91
2023/06/23 01:44:41;;;;;;;;;9.33;7.00;;;;;18.92;58.35;101996.94;4844241;29;45401;-92
2023/06/23 01:47:15;;;;;;;;;9.67;8.00;;;;;18.91;58.34;102009.28;4843139;29;45785;-91
2023/06/23 01:49:42;;;;;;;;;8.33;8.00;;;;;18.88;58.18;102003.31;4846644;29;45585;-91
2023/06/23 01:52:08;;;;;;;;;8.75;8.75;;;;;18.87;58.37;102001.59;4858697;29;45453;-91
2023/06/23 01:54:38;;;;;;;;;8.33;8.33;;;;;18.77;58.75;101993.28;4858499;29;47843;-92
2023/06/23 01:57:05;;;;;;;;;8.33;7.67;;;;;18.82;58.43;102012.38;4875933;29;45669;-91
2023/06/23 01:59:34;;;;;;;;;8.67;8.33;;;;;18.68;58.47;101991.97;4861140;29;45416;-92
2023/06/23 02:02:01;;;;;;;;;9.00;9.00;;;;;18.69;58.56;102002.47;4861729;29;45313;-92
2023/06/23 02:04:29;;;;;;;;;7.67;7.00;;;;;18.76;58.96;102025.88;4861551;29;47333;-92
2023/06/23 02:06:56;;;;;;;;;9.00;7.67;;;;;18.70;59.30;102032.28;4860090;29;45489;-91
2023/06/23 02:09:26;;;;;;;;;10.67;10.67;;;;;18.66;59.02;102026.31;4842784;29;45450;-91
2023/06/23 02:11:54;;;;;;;;;8.00;8.00;;;;;18.61;59.32;102023.06;4876630;29;45330;-91
2023/06/23 02:14:21;;;;;;;;;9.67;8.00;;;;;18.63;59.18;102030.91;4876510;29;48348;-91
2023/06/23 02:16:48;;;;;;;;;9.25;8.00;;;;;18.58;59.34;102031.13;4861496;29;45548;-91
2023/06/23 02:19:15;;;;;;;;;10.33;8.67;;;;;18.60;59.78;102037.19;4862841;29;45831;-92
2023/06/23 02:21:43;;;;;;;;;9.00;7.00;;;;;18.62;59.89;102039.75;4861366;29;45460;-91
2023/06/23 02:24:10;;;;;;;;;7.00;7.00;;;;;18.52;59.89;102016.47;4861463;29;47321;-92
2023/06/23 02:26:37;;;;;;;;;10.33;9.33;;;;;18.60;60.03;102029.28;4843491;29;45405;-91
2023/06/23 02:29:06;;;;;;;;;7.33;6.00;;;;;18.52;59.83;102013.00;4843967;29;45509;-92
2023/06/23 02:31:32;;;;;;;;;9.00;9.00;;;;;18.54;59.78;102017.25;4844284;29;45283;-92
2023/06/23 02:33:58;;;;;;;;;7.67;7.33;;;;;18.59;59.79;102024.06;4846811;29;45804;-91
2023/06/23 02:36:29;;;;;;;;;13.00;10.00;;;;;18.58;59.89;102031.13;4845930;29;45577;-91
2023/06/23 02:38:57;;;;;;;;;6.25;6.25;;;;;18.54;59.51;102027.81;4846050;29;45372;-92
2023/06/23 02:41:26;;;;;;;;;8.00;7.50;;;;;18.58;59.77;102031.13;4864015;29;46897;-92
2023/06/23 02:43:57;;;;;;;;;9.00;9.00;;;;;18.59;59.79;102043.38;4864044;29;45995;-92
2023/06/23 02:46:27;;;;;;;;;9.50;8.00;;;;;18.57;59.86;102047.88;4864140;29;45324;-92
2023/06/23 02:49:01;;;;;;;;;8.25;6.00;;;;;18.37;59.67;102017.25;4865447;29;45389;-91
2023/06/23 02:51:27;;;;;;;;;7.50;7.50;;;;;18.53;59.77;102047.19;4880311;29;45487;-92
2023/06/23 02:54:01;;;;;;;;;7.75;7.75;;;;;18.53;59.50;102063.00;4862148;29;45879;-92
2023/06/23 02:56:28;;;;;;;;;10.25;9.00;;;;;18.37;59.95;102031.25;4845535;29;45734;-91
2023/06/23 02:59:01;;;;;;;;;8.00;8.00;;;;;18.52;59.48;102055.16;4850592;29;45450;-92
2023/06/23 03:01:28;;;;;;;;;8.25;8.00;;;;;18.50;60.05;102055.22;4866176;29;45466;-92
2023/06/23 03:03:55;;;;;;;;;8.00;8.00;;;;;18.48;59.58;102059.75;4880709;29;47487;-92
2023/06/23 03:06:22;;;;;;;;;10.00;9.00;;;;;18.47;59.50;102059.81;4881105;29;45328;-91
2023/06/23 03:08:48;;;;;;;;;7.75;7.00;;;;;18.44;59.72;102066.09;4880944;29;45511;-92
2023/06/23 03:11:21;;;;;;;;;8.50;7.50;;;;;18.39;59.75;102066.31;4861929;29;45575;-92
2023/06/23 03:13:48;;;;;;;;;9.00;7.50;;;;;18.40;59.75;102072.41;4846709;29;48183;-92
2023/06/23 03:16:31;;;;;;;;;8.00;7.25;;;;;18.40;59.77;102059.25;4865481;29;45352;-92
2023/06/23 03:19:17;;;;;;;;;6.00;6.00;;;;;18.36;59.90;102063.81;4880895;29;45290;-92
2023/06/23 03:21:49;;;;;;;;;9.50;9.50;;;;;18.33;60.23;102056.03;4880975;29;45392;-92
2023/06/23 03:24:16;;;;;;;;;8.00;7.25;;;;;18.36;60.19;102063.81;4880543;29;47764;-91
2023/06/23 03:26:47;;;;;;;;;6.67;6.67;;;;;18.36;59.64;102061.19;4880633;29;45862;-92
2023/06/23 03:29:14;;;;;;;;;8.00;6.00;;;;;18.37;60.02;102070.78;4866458;29;45444;-91
2023/06/23 03:31:42;;;;;;;;;4.00;2.25;;;;;18.33;60.02;102063.94;4866151;29;45548;-91
2023/06/23 03:34:08;;;;;;;;;9.25;9.00;;;;;18.28;60.25;102065.94;4876563;29;48007;-91
2023/06/23 03:36:37;;;;;;;;;8.00;7.75;;;;;18.36;60.04;102079.63;4847424;29;45364;-91
2023/06/23 03:39:21;;;;;;;;;9.75;7.25;;;;;18.34;60.57;102075.34;4846298;29;45336;-92
2023/06/23 03:41:49;;;;;;;;;8.75;8.25;;;;;18.29;59.92;102075.56;4861874;29;45654;-92
2023/06/23 03:44:30;;;;;;;;;8.25;7.75;;;;;18.26;60.31;102073.06;4876111;29;48185;-92
2023/06/23 03:47:00;;;;;;;;;10.00;8.25;;;;;18.29;60.57;102081.69;4880151;29;45338;-91
2023/06/23 03:49:35;;;;;;;;;10.25;9.75;;;;;18.26;60.39;102080.97;4865851;29;45359;-91
2023/06/23 03:52:04;;;;;;;;;7.50;7.25;;;;;18.26;60.71;102088.88;4864840;29;45267;-91
2023/06/23 03:54:31;;;;;;;;;8.75;7.00;;;;;18.19;60.08;102079.56;4864410;29;48071;-92
2023/06/23 03:56:59;;;;;;;;;7.50;7.50;;;;;18.17;60.50;102079.63;4864795;29;45395;-92
2023/06/23 03:59:27;;;;;;;;;11.50;9.25;;;;;18.20;60.50;102092.69;4866042;29;45304;-92
2023/06/23 04:01:55;;;;;;;;;8.50;8.50;;;;;18.09;60.59;102080.00;4864479;29;45553;-92
2023/06/23 04:04:22;;;;;;;;;7.25;7.25;;;;;18.06;60.95;102081.88;4865254;29;45317;-91
2023/06/23 04:06:48;;;;;;;;;8.75;8.75;;;;;18.12;60.53;102085.13;4879716;29;45791;-92
2023/06/23 04:09:16;;;;;;;;;7.50;7.00;;;;;18.17;60.44;102087.53;4876914;29;45490;-91
2023/06/23 04:11:44;;;;;;;;;12.00;11.00;;;;;18.19;60.77;102101.47;4846187;29;45565;-92
2023/06/23 04:14:12;;;;;;;;;8.00;8.00;;;;;18.20;60.83;102104.97;4845859;29;46933;-91
2023/06/23 04:16:40;;;;;;;;;7.75;7.50;;;;;18.20;60.86;102105.84;4862048;29;45206;-92
2023/06/23 04:19:09;;;;;;;;;8.25;8.25;;;;;18.17;61.00;102116.53;4864430;29;45371;-91
2023/06/23 04:21:37;;;;;;;;;7.00;7.00;;;;;18.16;60.88;102110.38;4864436;29;45577;-93
2023/06/23 04:24:04;;;;;;;;;7.25;6.25;;;;;18.18;61.19;102120.03;4860957;29;45664;-91
2023/06/23 04:26:33;;;;;;;;;10.25;8.25;;;;;18.11;60.63;102116.81;4861357;29;45242;-91
2023/06/23 04:29:01;;;;;;;;;9.75;9.75;;;;;18.18;61.05;102127.94;4845699;29;45351;-91
2023/06/23 04:31:30;;;;;;;;;9.50;8.00;;;;;18.06;60.90;102103.84;4862324;29;45624;-92
2023/06/23 04:33:55;;;;;;;;;8.25;8.00;;;;;18.12;61.09;102115.88;4865078;29;46950;-91
2023/06/23 04:36:24;;;;;;;;;11.00;9.00;;;;;18.11;61.33;102104.50;4865099;29;45222;-91
2023/06/23 04:38:59;;;;;;;;;5.75;5.25;;;;;18.09;61.32;102114.25;4879864;29;45561;-92
2023/06/23 04:41:27;;;;;;;;;10.67;9.67;;;;;18.08;61.43;102117.81;4849862;29;45346;-93
2023/06/23 04:43:56;;;;;;;;;9.33;9.33;;;;;18.12;61.56;102123.78;4844653;29;48319;-91
2023/06/23 04:46:28;;;;;;;;;8.33;8.33;;;;;18.08;61.47;102115.16;4861867;29;45403;-91
2023/06/23 04:48:58;;;;;;;;;10.00;8.00;;;;;18.16;61.74;102135.88;4864297;29;45595;-93
2023/06/23 04:51:31;;;;;;;;;9.67;8.67;;;;;18.15;61.72;102142.09;4865429;29;45338;-92
2023/06/23 04:54:03;;;;;;;;;10.00;9.50;;;;;18.09;61.76;102131.84;4863051;29;46934;-92
2023/06/23 04:56:33;;;;;;;;;9.50;8.75;;;;;18.21;61.79;102143.56;4863881;29;45351;-93
2023/06/23 04:59:02;;;;;;;;;11.00;9.67;;;;;18.24;61.52;102156.63;4863202;29;45375;-92
2023/06/23 05:01:30;;;;;;;;;8.00;6.67;;;;;18.21;61.60;102151.47;4879761;29;45252;-92
2023/06/23 05:04:00;;;;;;;;;7.00;7.00;;;;;18.31;61.71;102160.66;4865674;29;47060;-92
2023/06/23 05:06:27;;;;;;;;;9.50;8.25;;;;;18.24;61.82;102151.34;4845179;29;45324;-91
2023/06/23 05:08:55;;;;;;;;;9.00;7.67;;;;;18.21;61.62;102144.44;4845422;29;45566;-91
2023/06/23 05:11:21;;;;;;;;;10.00;7.67;;;;;18.33;61.26;102152.69;4845374;29;45316;-93
2023/06/23 05:13:50;;;;;;;;;10.00;8.00;;;;;18.39;61.73;102157.69;4846429;29;47256;-93
2023/06/23 05:16:17;;;;;;;;;9.75;9.50;;;;;18.40;61.61;102148.84;4878054;29;45648;-93
2023/06/23 05:18:45;;;;;;;;;7.75;7.75;;;;;18.46;61.51;102158.25;4879207;29;45356;-92
2023/06/23 05:21:12;;;;;;;;;10.50;9.25;;;;;18.45;61.77;102152.13;4865009;29;45241;-91
2023/06/23 05:23:41;;;;;;;;;7.75;6.75;;;;;18.49;61.58;102160.72;4866704;29;45737;-92
2023/06/23 05:26:11;;;;;;;;;9.00;9.00;;;;;18.51;61.76;102167.63;4866251;29;45643;-91
2023/06/23 05:28:39;;;;;;;;;9.67;9.00;;;;;18.52;61.60;102165.88;4866219;29;45279;-92
2023/06/23 05:31:07;;;;;;;;;9.25;9.25;;;;;18.52;61.82;102166.72;4866501;29;45361;-92
2023/06/23 05:33:37;;;;;;;;;9.50;9.50;;;;;18.49;61.37;102158.97;4883018;29;45441;-91
2023/06/23 05:36:07;;;;;;;;;10.33;10.33;;;;;18.55;61.84;102170.97;4882997;29;45497;-91
2023/06/23 05:38:36;;;;;;;;;10.00;9.00;;;;;18.57;61.72;102171.78;4866295;29;45274;-91
2023/06/23 05:41:01;;;;;;;;;9.33;9.33;;;;;18.58;61.53;102157.66;4866514;29;45545;-92
2023/06/23 05:43:27;;;;;;;;;10.00;10.00;;;;;18.61;61.40;102164.59;4865549;29;48189;-91
2023/06/23 05:45:54;;;;;;;;;8.00;7.00;;;;;18.64;61.95;102164.41;4866229;29;45371;-91
2023/06/23 05:48:29;;;;;;;;;7.67;7.67;;;;;18.69;61.44;102181.75;4865816;29;45379;-91
2023/06/23 05:50:56;;;;;;;;;8.00;7.50;;;;;18.76;61.40;102176.16;4881741;29;45373;-92
2023/06/23 05:53:25;;;;;;;;;9.00;8.00;;;;;18.81;61.72;102180.31;4882455;29;46315;-91
2023/06/23 05:55:56;;;;;;;;;8.67;8.00;;;;;18.85;61.32;102172.22;4865468;29;45345;-91
2023/06/23 05:58:26;;;;;;;;;9.00;8.67;;;;;18.89;61.29;102179.91;4862512;29;45315;-92
2023/06/23 06:00:54;;;;;;;;;8.33;8.00;;;;;18.86;61.77;102174.81;4847945;29;45419;-91
2023/06/23 06:03:26;;;;;;;;;8.00;8.00;;;;;18.92;61.58;102185.06;4863578;29;45410;-92
2023/06/23 06:05:55;;;;;;;;;9.00;7.00;;;;;18.98;61.55;102185.69;4847652;29;45340;-91
2023/06/23 06:08:22;;;;;;;;;8.00;7.67;;;;;19.00;61.58;102181.19;4866232;29;45471;-91
2023/06/23 06:10:50;;;;;;;;;6.00;6.00;;;;;19.05;61.49;102181.84;4851016;29;45303;-93
2023/06/23 06:13:18;;;;;;;;;9.33;9.33;;;;;19.00;61.44;102158.31;4865141;29;45463;-91
2023/06/23 06:15:45;;;;;;;;;10.67;8.33;;;;;19.08;61.36;102169.34;4867092;29;45465;-92
2023/06/23 06:18:14;;;;;;;;;10.00;8.00;;;;;19.19;61.49;102182.03;4869035;29;45382;-92
2023/06/23 06:20:42;;;;;;;;;8.33;7.33;;;;;19.24;61.28;102194.97;4868983;29;45237;-93
2023/06/23 06:23:10;;;;;;;;;9.00;6.33;;;;;19.30;61.11;102199.13;4868552;29;45846;-91
2023/06/23 06:25:38;;;;;;;;;6.67;6.67;;;;;19.34;61.38;102192.72;4868402;29;45387;-91
2023/06/23 06:28:10;;;;;;;;;9.00;7.33;;;;;19.39;60.94;102189.88;4877754;29;45249;-91
2023/06/23 06:30:39;;;;;;;;;13.33;11.67;;;;;19.40;60.78;102188.94;4869145;29;45528;-92
2023/06/23 06:33:08;;;;;;;;;9.00;6.67;;;;;19.39;60.78;102187.22;4868806;29;45560;-92
2023/06/23 06:35:35;;;;;;;;;5.00;5.00;;;;;19.39;60.72;102187.22;4885406;29;45392;-91
2023/06/23 06:38:03;;;;;;;;;9.33;9.33;;;;;19.52;60.77;102187.47;4868832;29;45448;-91
2023/06/23 06:40:29;;;;;;;;;12.00;10.00;;;;;19.60;60.96;102199.34;4868895;29;45343;-91
2023/06/23 06:42:55;;;;;;;;;9.33;8.00;;;;;19.62;60.61;102192.19;4861032;29;48235;-91
2023/06/23 06:45:20;;;;;;;;;7.67;7.00;;;;;19.69;60.50;102192.72;4866501;29;45302;-91
2023/06/23 06:47:48;;;;;;;;;7.00;5.00;;;;;19.71;60.80;102179.44;4850357;29;45370;-92
2023/06/23 06:50:15;;;;;;;;;9.67;8.67;;;;;19.79;60.51;102184.31;4850369;29;45593;-92
2023/06/23 06:52:43;;;;;;;;;9.00;9.00;;;;;19.82;60.25;102192.97;4865283;29;47112;-91
2023/06/23 06:55:17;;;;;;;;;8.00;8.00;;;;;19.83;60.33;102189.38;4865246;29;45399;-91
2023/06/23 06:57:44;;;;;;;;;7.67;7.33;;;;;19.84;60.45;102183.16;4873352;29;45515;-91
2023/06/23 07:00:10;;;;;;;;;9.33;9.00;;;;;19.95;60.15;102198.41;4872077;29;45447;-91
2023/06/23 07:02:38;;;;;;;;;7.33;6.67;;;;;20.01;60.38;102190.19;4866304;29;45395;-92
2023/06/23 07:05:04;;;;;;;;;6.33;6.33;;;;;19.96;60.11;102179.06;4865021;29;45448;-91
2023/06/23 07:07:30;;;;;;;;;8.67;7.67;;;;;19.95;60.03;102172.00;4865596;29;45343;-91
2023/06/23 07:09:56;;;;;;;;;11.33;9.67;;;;;20.11;60.24;102189.72;4865605;29;45433;-91
2023/06/23 07:12:23;;;;;;;;;7.67;7.67;;;;;20.21;59.54;102190.94;4854810;29;47350;-92
2023/06/23 07:14:49;;;;;;;;;7.00;7.00;;;;;20.26;59.97;102195.97;4885120;29;45293;-91
2023/06/23 07:17:14;;;;;;;;;7.67;7.00;;;;;20.23;59.31;102180.28;4883398;29;45493;-92
2023/06/23 07:19:40;;;;;;;;;8.00;6.67;;;;;20.35;59.35;102187.53;4885254;29;45667;-91
2023/06/23 07:22:06;;;;;;;;;7.00;7.00;;;;;20.35;59.18;102170.81;4867948;29;45797;-91
2023/06/23 07:24:31;;;;;;;;;8.00;8.00;;;;;20.29;59.31;102143.78;4868086;29;45585;-91
2023/06/23 07:26:57;;;;;;;;;10.00;7.67;;;;;20.47;58.93;102170.16;4852119;29;46500;-91
2023/06/23 07:29:22;;;;;;;;;10.67;9.00;;;;;20.51;59.25;102170.84;4868176;29;45562;-92
2023/06/23 07:31:48;;;;;;;;;11.00;9.67;;;;;20.53;58.82;102179.53;4865445;29;45947;-91
2023/06/23 07:34:13;;;;;;;;;10.33;10.00;;;;;20.48;59.00;102157.78;4864819;29;45675;-92
2023/06/23 07:36:38;;;;;;;;;8.00;8.00;;;;;20.56;58.83;102168.78;4849544;29;45265;-92
2023/06/23 07:39:04;;;;;;;;;7.00;6.00;;;;;20.60;58.45;102162.38;4850000;29;45360;-91
2023/06/23 07:41:30;;;;;;;;;10.33;8.67;;;;;20.74;58.73;102176.63;4877318;29;46866;-92
2023/06/23 07:43:55;;;;;;;;;8.67;8.67;;;;;20.80;58.24;102181.56;4849141;29;45539;-91
2023/06/23 07:46:20;;;;;;;;;10.33;8.00;;;;;20.83;58.50;102187.53;4880031;29;45341;-91
2023/06/23 07:48:46;;;;;;;;;7.67;7.00;;;;;20.89;58.55;102185.50;4883375;29;45688;-91
2023/06/23 07:51:11;;;;;;;;;10.33;7.00;;;;;20.95;58.32;102190.44;4867622;29;45665;-92
2023/06/23 07:53:37;;;;;;;;;9.00;9.00;;;;;20.91;57.87;102180.97;4884193;29;45312;-91
2023/06/23 07:56:02;;;;;;;;;9.67;9.67;;;;;21.03;58.12;102179.41;4867452;29;45922;-92
2023/06/23 07:58:27;;;;;;;;;9.33;9.00;;;;;21.06;57.89;102179.25;4884025;29;45255;-91
2023/06/23 08:00:53;;;;;;;;;12.00;10.67;;;;;21.12;58.05;102184.19;4867595;29;45664;-92
2023/06/23 08:03:19;;;;;;;;;7.67;7.67;;;;;21.15;58.13;102184.00;4884593;29;45322;-92
2023/06/23 08:05:44;;;;;;;;;9.33;7.67;;;;;21.20;57.98;102184.59;4884488;29;45370;-91
2023/06/23 08:08:10;;;;;;;;;9.00;8.67;;;;;21.27;57.48;102193.03;4865643;29;45703;-91
2023/06/23 08:10:35;;;;;;;;;10.33;9.00;;;;;21.26;57.14;102191.31;4860602;29;45936;-91
2023/06/23 08:13:01;;;;;;;;;9.00;8.33;;;;;21.36;56.77;102205.72;4883046;29;45269;-91
2023/06/23 08:15:27;;;;;;;;;6.67;6.67;;;;;21.40;56.36;102205.53;4867724;29;45274;-91
2023/06/23 08:17:54;;;;;;;;;7.33;7.33;;;;;21.34;56.55;102196.16;4883590;29;45431;-91
2023/06/23 08:20:20;;;;;;;;;9.67;9.00;;;;;21.43;55.97;102203.56;4866888;29;48238;-91
2023/06/23 08:22:45;;;;;;;;;8.33;7.33;;;;;21.48;56.22;102206.78;4882446;29;45327;-92
2023/06/23 08:25:10;;;;;;;;;11.00;9.33;;;;;21.58;56.43;102220.31;4873487;29;45657;-91
2023/06/23 08:27:36;;;;;;;;;12.00;8.33;;;;;21.55;56.43;102209.06;4880421;29;45428;-91
2023/06/23 08:30:01;;;;;;;;;9.00;9.00;;;;;21.73;55.86;102220.38;4883216;29;45538;-92
2023/06/23 08:32:26;;;;;;;;;8.67;8.67;;;;;21.80;55.87;102229.66;4882442;29;45526;-91
2023/06/23 08:34:52;;;;;;;;;9.00;8.00;;;;;21.78;55.86;102202.41;4882831;29;45357;-91
2023/06/23 08:37:17;;;;;;;;;8.00;6.67;;;;;21.95;55.61;102214.66;4867644;29;45254;-92
2023/06/23 08:39:43;;;;;;;;;6.33;6.33;;;;;22.02;55.84;102223.94;4867272;29;45691;-90
2023/06/23 08:42:08;;;;;;;;;11.33;10.00;;;;;22.06;54.98;102215.75;4877816;29;45214;-91
2023/06/23 08:44:41;;;;;;;;;9.00;7.00;;;;;22.21;55.33;102228.06;4848651;29;45425;-93
2023/06/23 08:47:12;;;;;;;;;13.67;8.67;;;;;22.31;54.92;102232.81;4848490;29;45592;-91
2023/06/23 08:49:40;;;;;;;;;8.67;8.00;;;;;22.39;55.19;102233.16;4848193;29;46992;-91
2023/06/23 08:52:06;;;;;;;;;6.00;6.00;;;;;22.43;54.22;102230.25;4864801;29;45426;-90
2023/06/23 08:54:32;;;;;;;;;8.67;6.00;;;;;22.55;54.55;102235.75;4864810;29;45387;-92
2023/06/23 08:56:58;;;;;;;;;12.67;9.67;;;;;22.62;54.26;102237.06;4870873;29;45195;-90
2023/06/23 08:59:24;;;;;;;;;10.67;8.67;;;;;22.67;54.25;102234.09;4883447;29;45494;-91
2023/06/23 09:01:49;;;;;;;;;9.00;9.00;;;;;22.78;54.23;102236.09;4881958;29;45518;-92
2023/06/23 09:04:15;;;;;;;;;7.00;6.33;;;;;22.82;54.02;102235.78;4882350;29;45313;-92
2023/06/23 09:06:41;;;;;;;;;7.33;5.67;;;;;22.97;54.06;102249.00;4882503;29;45396;-91
2023/06/23 09:09:06;;;;;;;;;7.00;5.67;;;;;23.02;53.53;102230.13;4882050;29;47043;-92
2023/06/23 09:11:32;;;;;;;;;8.00;7.00;;;;;23.18;53.66;102244.09;4881515;29;45501;-91
2023/06/23 09:14:00;;;;;;;;;6.67;5.00;;;;;23.31;53.21;102253.88;4878742;29;45507;-91
2023/06/23 09:16:27;;;;;;;;;8.00;5.33;;;;;23.34;52.26;102240.44;4864832;29;45501;-91
2023/06/23 09:18:53;;;;;;;;;5.67;4.00;;;;;23.44;52.46;102238.00;4847923;29;46746;-91
2023/06/23 09:21:20;;;;;;;;;5.00;4.33;;;;;23.58;52.15;102243.25;4863795;29;45300;-91
2023/06/23 09:24:03;;;;;;;;;7.00;5.00;;;;;23.71;52.22;102239.75;4847641;29;45275;-91
2023/06/23 09:26:50;;;;;;;;;5.67;5.00;;;;;23.89;51.52;102250.94;4853659;29;45629;-91
2023/06/23 09:29:16;;;;;;;;;3.67;3.67;;;;;24.01;51.13;102251.88;4865017;29;45703;-91
2023/06/23 09:31:41;;;;;;;;;4.67;4.33;;;;;24.10;51.01;102240.63;4866316;29;45253;-90
2023/06/23 09:34:07;;;;;;;;;5.33;5.00;;;;;24.18;50.78;102244.53;4866036;29;45400;-92
2023/06/23 09:36:37;;;;;;;;;6.67;5.67;;;;;24.28;50.19;102249.13;4866475;29;45575;-92
2023/06/23 09:39:03;;;;;;;;;6.00;4.67;;;;;24.36;50.35;102240.59;4882738;29;45421;-92
2023/06/23 09:41:33;;;;;;;;;5.00;5.00;;;;;24.49;49.81;102245.84;4856158;29;45239;-90
2023/06/23 09:43:59;;;;;;;;;5.67;5.00;;;;;24.52;50.11;102232.34;4847419;29;45299;-91
2023/06/23 09:46:26;;;;;;;;;4.00;4.00;;;;;24.71;49.89;102240.81;4863745;29;45325;-92
2023/06/23 09:48:53;;;;;;;;;4.33;4.33;;;;;24.84;49.58;102248.78;4847219;29;45594;-92
2023/06/23 09:51:19;;;;;;;;;6.67;4.67;;;;;24.92;49.44;102231.28;4847065;29;45345;-91
2023/06/23 09:53:46;;;;;;;;;7.67;5.00;;;;;25.06;48.67;102230.25;4847257;29;45346;-92
2023/06/23 09:56:15;;;;;;;;;5.00;5.00;;;;;25.16;48.64;102237.53;4855225;29;45524;-92
2023/06/23 09:58:42;;;;;;;;;3.33;3.33;;;;;25.26;49.02;102227.06;4881501;29;45473;-91
2023/06/23 10:01:17;;;;;;;;;5.00;5.00;;;;;25.40;48.36;102226.84;4865192;29;45468;-91
2023/06/23 10:03:54;;;;;;;;;4.67;4.33;;;;;25.56;48.63;102233.69;4881375;29;45249;-91
2023/06/23 10:06:25;;;;;;;;;5.33;5.00;;;;;25.67;47.93;102230.19;4882638;29;45241;-91
2023/06/23 10:08:59;;;;;;;;;4.67;4.33;;;;;25.75;48.38;102230.47;4865583;29;47326;-91
2023/06/23 10:11:30;;;;;;;;;5.00;4.00;;;;;25.88;47.26;102225.84;4881776;29;45247;-91
2023/06/23 10:14:02;;;;;;;;;5.00;5.00;;;;;25.87;47.62;102207.34;4882433;29;45498;-92
2023/06/23 10:16:28;;;;;;;;;7.67;6.00;;;;;26.08;46.67;102217.25;4881777;29;45466;-91
2023/06/23 10:18:54;;;;;;;;;6.00;6.00;;;;;26.23;46.60;102216.06;4865029;29;45744;-92
2023/06/23 10:21:21;;;;;;;;;4.33;4.33;;;;;26.34;46.88;102223.19;4880567;29;45551;-92
2023/06/23 10:23:48;;;;;;;;;4.33;3.67;;;;;26.49;46.33;102226.47;4881445;29;45334;-92
2023/06/23 10:26:15;;;;;;;;;4.00;4.00;;;;;26.60;46.60;102216.75;4880866;29;45431;-91
2023/06/23 10:28:45;;;;;;;;;6.00;4.33;;;;;26.81;45.74;102217.63;4864724;29;48389;-92
2023/06/23 10:31:12;;;;;;;;;6.67;4.33;;;;;26.94;44.73;102224.66;4882164;29;45308;-92
2023/06/23 10:33:40;;;;;;;;;5.67;4.67;;;;;27.06;45.31;102212.94;4882176;29;45413;-91
2023/06/23 10:36:08;;;;;;;;;6.00;6.00;;;;;27.20;44.99;102219.81;4852118;29;45510;-92
2023/06/23 10:38:39;;;;;;;;;5.00;5.00;;;;;27.29;44.96;102212.84;4846865;29;47392;-92
2023/06/23 10:41:06;;;;;;;;;4.00;4.00;;;;;27.42;44.15;102217.13;4859383;29;45350;-92
2023/06/23 10:43:33;;;;;;;;;4.00;4.00;;;;;27.58;44.15;102217.53;4865481;29;45370;-91
2023/06/23 10:46:00;;;;;;;;;6.33;4.00;;;;;27.72;44.12;102208.31;4882151;29;45587;-91
2023/06/23 10:48:26;;;;;;;;;4.00;4.00;;;;;27.88;44.33;102207.00;4882122;29;45315;-91
2023/06/23 10:50:53;;;;;;;;;6.00;5.00;;;;;28.08;42.99;102207.91;4882043;29;45277;-91
2023/06/23 10:53:24;;;;;;;;;5.33;5.33;;;;;28.13;42.56;102199.47;4867083;29;45574;-91
2023/06/23 10:55:58;;;;;;;;;5.67;5.00;;;;;28.37;42.76;102214.38;4865087;29;45527;-92
2023/06/23 10:58:23;;;;;;;;;5.00;5.00;;;;;28.48;41.66;102221.41;4849511;29;45874;-92
2023/06/23 11:00:55;;;;;;;;;4.67;4.67;;;;;28.56;41.28;102226.94;4849937;29;45381;-91
2023/06/23 11:03:34;;;;;;;;;5.00;4.33;;;;;28.60;41.68;102214.94;4849736;29;45575;-91
2023/06/23 11:06:04;;;;;;;;;6.00;6.00;;;;;28.75;41.24;102219.91;4866553;29;45284;-91
2023/06/23 11:08:35;;;;;;;;;8.00;6.33;;;;;28.87;41.26;102212.63;4867848;29;45607;-91
2023/06/23 11:11:06;;;;;;;;;5.00;5.00;;;;;29.01;40.86;102217.53;4880227;29;46037;-92
2023/06/23 11:13:46;;;;;;;;;7.33;7.00;;;;;29.15;40.31;102216.25;4868183;29;45421;-91
2023/06/23 11:16:17;;;;;;;;;7.00;6.00;;;;;29.22;40.62;102211.16;4868295;29;45310;-91
2023/06/23 11:18:53;;;;;;;;;6.00;5.00;;;;;29.30;40.37;102216.63;4867462;29;47518;-92
2023/06/23 11:21:30;;;;;;;;;5.33;5.33;;;;;29.42;40.08;102211.97;4884524;29;45246;-91
2023/06/23 11:24:10;;;;;;;;;7.00;6.00;;;;;29.54;39.67;102211.81;4882987;29;45317;-91
2023/06/23 11:26:37;;;;;;;;;5.67;5.33;;;;;29.66;39.71;102209.81;4867922;29;45534;-91
2023/06/23 11:29:10;;;;;;;;;6.00;6.00;;;;;29.76;39.10;102207.09;4865534;29;46748;-91
2023/06/23 11:32:02;;;;;;;;;4.67;4.67;;;;;29.83;39.03;102206.34;4884512;29;45639;-92
2023/06/23 11:34:28;;;;;;;;;5.67;5.33;;;;;29.96;39.28;102211.38;4867935;29;45714;-92
2023/06/23 11:36:55;;;;;;;;;7.00;5.00;;;;;30.06;39.28;102203.28;4883597;29;45384;-91
2023/06/23 11:39:22;;;;;;;;;6.67;6.67;;;;;30.20;38.13;102210.00;4883334;29;46717;-92
2023/06/23 11:41:47;;;;;;;;;6.33;6.33;;;;;30.20;38.31;102203.78;4883433;29;45590;-93
2023/06/23 11:44:14;;;;;;;;;7.33;7.33;;;;;30.19;38.65;102197.59;4866199;29;45380;-91
2023/06/23 11:46:39;;;;;;;;;5.33;5.33;;;;;30.20;38.80;102203.78;4883703;29;45377;-92
2023/06/23 11:49:12;;;;;;;;;6.00;6.00;;;;;30.24;38.42;102195.31;4884055;29;46647;-92
2023/06/23 11:51:38;;;;;;;;;7.50;4.50;;;;;30.26;38.33;102197.81;4883266;29;45854;-93
2023/06/23 11:54:05;;;;;;;;;5.33;5.33;;;;;30.36;38.14;102195.91;4882851;29;45621;-92
2023/06/23 11:56:32;;;;;;;;;4.33;4.33;;;;;30.46;38.16;102192.34;4867520;29;45629;-91
2023/06/23 11:59:02;;;;;;;;;7.00;7.00;;;;;30.64;37.60;102197.72;4882862;29;46692;-92
2023/06/23 12:01:27;;;;;;;;;5.33;5.33;;;;;30.73;38.34;102195.97;4865298;29;45285;-91
2023/06/23 12:03:53;;;;;;;;;6.33;6.33;;;;;30.89;37.73;102196.13;4864191;29;45469;-93
2023/06/23 12:06:20;;;;;;;;;5.00;5.00;;;;;30.99;36.83;102195.16;4865498;29;45469;-92
2023/06/23 12:08:51;;;;;;;;;5.00;4.67;;;;;31.05;36.94;102192.69;4848488;29;45903;-93
2023/06/23 12:11:17;;;;;;;;;5.67;5.00;;;;;31.17;36.73;102201.38;4848196;29;45345;-91
2023/06/23 12:13:45;;;;;;;;;7.00;7.00;;;;;31.22;36.40;102190.13;4854201;29;45314;-92
2023/06/23 12:16:12;;;;;;;;;4.00;4.00;;;;;31.31;36.07;102193.75;4866344;29;45651;-93
2023/06/23 12:18:44;;;;;;;;;8.33;6.33;;;;;31.35;35.98;102189.75;4867076;29;46756;-91
2023/06/23 12:21:09;;;;;;;;;6.33;5.00;;;;;31.33;36.36;102200.66;4866937;29;45412;-92
2023/06/23 12:23:35;;;;;;;;;4.33;4.33;;;;;31.26;36.29;102194.19;4867320;29;45258;-92
2023/06/23 12:26:01;;;;;;;;;7.00;7.00;;;;;31.12;35.03;102190.25;4883193;29;45597;-92
2023/06/23 12:28:29;;;;;;;;;7.33;5.00;;;;;31.02;35.55;102195.72;4881113;29;46933;-92
2023/06/23 12:30:55;;;;;;;;;7.67;4.67;;;;;30.92;35.55;102184.22;4866920;29;45418;-91
2023/06/23 12:33:22;;;;;;;;;6.00;6.00;;;;;30.92;35.27;102186.91;4883177;29;45785;-92
2023/06/23 12:35:57;;;;;;;;;5.67;5.67;;;;;30.93;35.46;102192.09;4883958;29;45475;-93
2023/06/23 12:38:23;;;;;;;;;5.33;5.33;;;;;30.84;35.25;102159.94;4866811;29;45973;-92
2023/06/23 12:40:49;;;;;;;;;7.00;5.67;;;;;30.96;35.39;102187.44;4882405;29;45382;-93
2023/06/23 12:43:14;;;;;;;;;7.00;6.00;;;;;30.87;34.71;102173.09;4878999;29;45343;-93
2023/06/23 12:45:40;;;;;;;;;6.00;6.00;;;;;30.79;35.60;102174.69;4848698;29;45276;-92
2023/06/23 12:48:10;;;;;;;;;6.00;6.00;;;;;30.78;35.21;102178.38;4848199;29;48236;-92
2023/06/23 12:50:40;;;;;;;;;6.00;6.00;;;;;30.83;35.06;102169.00;4848228;29;45344;-91